sensor_id;sensor_type;location;lat;lon;timestamp;P1;durP1;ratioP1;P2;durP2;ratioP2
29546;SDS011;40782;47.264;11.330;2022-08-21T00:01:10;7.30;;;6.53;;
29546;SDS011;40782;47.264;11.330;2022-08-21T00:03:40;6.35;;;5.75;;
29546;SDS011;40782;47.264;11.330;2022-08-21T00:06:07;6.35;;;5.75;;
29546;SDS011;40782;47.264;11.330;2022-08-21T00:08:36;6.53;;;6.03;;
29546;SDS011;40782;47.264;11.330;2022-08-21T00:11:03;8.18;;;6.47;;
29546;SDS011;40782;47.264;11.330;2022-08-21T00:13:31;7.20;;;6.50;;
29546;SDS011;40782;47.264;11.330;2022-08-21T00:15:59;6.65;;;6.05;;
29546;SDS011;40782;47.264;11.330;2022-08-21T00:18:26;6.15;;;5.65;;
29546;SDS011;40782;47.264;11.330;2022-08-21T00:20:54;6.68;;;6.07;;
29546;SDS011;40782;47.264;11.330;2022-08-21T00:23:21;6.72;;;6.10;;
29546;SDS011;40782;47.264;11.330;2022-08-21T00:25:49;9.02;;;6.00;;
29546;SDS011;40782;47.264;11.330;2022-08-21T00:28:17;7.88;;;7.00;;
29546;SDS011;40782;47.264;11.330;2022-08-21T00:30:44;9.15;;;6.90;;
29546;SDS011;40782;47.264;11.330;2022-08-21T00:33:11;6.38;;;5.80;;
29546;SDS011;40782;47.264;11.330;2022-08-21T00:35:41;7.18;;;6.43;;
29546;SDS011;40782;47.264;11.330;2022-08-21T00:38:09;6.90;;;6.10;;
29546;SDS011;40782;47.264;11.330;2022-08-21T00:40:37;9.90;;;5.88;;
29546;SDS011;40782;47.264;11.330;2022-08-21T00:43:10;6.45;;;5.85;;
29546;SDS011;40782;47.264;11.330;2022-08-21T00:45:38;7.47;;;5.88;;
29546;SDS011;40782;47.264;11.330;2022-08-21T00:48:06;7.90;;;6.20;;
29546;SDS011;40782;47.264;11.330;2022-08-21T00:50:34;6.07;;;5.57;;
29546;SDS011;40782;47.264;11.330;2022-08-21T00:53:06;6.53;;;5.93;;
29546;SDS011;40782;47.264;11.330;2022-08-21T00:55:36;5.97;;;5.35;;
29546;SDS011;40782;47.264;11.330;2022-08-21T00:58:04;7.28;;;6.22;;
29546;SDS011;40782;47.264;11.330;2022-08-21T01:00:35;6.40;;;5.72;;
29546;SDS011;40782;47.264;11.330;2022-08-21T01:03:06;5.72;;;5.30;;
29546;SDS011;40782;47.264;11.330;2022-08-21T01:05:34;7.05;;;6.32;;
29546;SDS011;40782;47.264;11.330;2022-08-21T01:08:02;7.43;;;5.63;;
29546;SDS011;40782;47.264;11.330;2022-08-21T01:10:30;5.88;;;5.47;;
29546;SDS011;40782;47.264;11.330;2022-08-21T01:12:58;5.63;;;5.10;;
29546;SDS011;40782;47.264;11.330;2022-08-21T01:15:27;7.28;;;6.18;;
29546;SDS011;40782;47.264;11.330;2022-08-21T01:17:59;6.15;;;5.65;;
29546;SDS011;40782;47.264;11.330;2022-08-21T01:20:27;5.70;;;5.20;;
29546;SDS011;40782;47.264;11.330;2022-08-21T01:22:56;6.63;;;5.50;;
29546;SDS011;40782;47.264;11.330;2022-08-21T01:25:23;7.75;;;5.50;;
29546;SDS011;40782;47.264;11.330;2022-08-21T01:27:50;5.95;;;5.35;;
29546;SDS011;40782;47.264;11.330;2022-08-21T01:30:18;5.90;;;5.30;;
29546;SDS011;40782;47.264;11.330;2022-08-21T01:32:48;6.57;;;5.97;;
29546;SDS011;40782;47.264;11.330;2022-08-21T01:35:17;6.45;;;5.85;;
29546;SDS011;40782;47.264;11.330;2022-08-21T01:37:46;5.22;;;4.78;;
29546;SDS011;40782;47.264;11.330;2022-08-21T01:40:16;5.70;;;4.70;;
29546;SDS011;40782;47.264;11.330;2022-08-21T01:42:44;5.72;;;4.25;;
29546;SDS011;40782;47.264;11.330;2022-08-21T01:45:12;4.63;;;4.22;;
29546;SDS011;40782;47.264;11.330;2022-08-21T01:47:40;5.20;;;4.80;;
29546;SDS011;40782;47.264;11.330;2022-08-21T01:50:10;6.15;;;5.55;;
29546;SDS011;40782;47.264;11.330;2022-08-21T01:52:38;5.18;;;4.68;;
29546;SDS011;40782;47.264;11.330;2022-08-21T01:55:07;5.88;;;5.38;;
29546;SDS011;40782;47.264;11.330;2022-08-21T01:57:36;6.53;;;5.07;;
29546;SDS011;40782;47.264;11.330;2022-08-21T02:00:04;6.72;;;5.45;;
29546;SDS011;40782;47.264;11.330;2022-08-21T02:02:33;6.65;;;5.35;;
29546;SDS011;40782;47.264;11.330;2022-08-21T02:05:00;5.20;;;4.68;;
29546;SDS011;40782;47.264;11.330;2022-08-21T02:07:34;5.13;;;4.70;;
29546;SDS011;40782;47.264;11.330;2022-08-21T02:10:03;4.72;;;4.43;;
29546;SDS011;40782;47.264;11.330;2022-08-21T02:12:32;5.20;;;4.75;;
29546;SDS011;40782;47.264;11.330;2022-08-21T02:15:01;4.43;;;4.13;;
29546;SDS011;40782;47.264;11.330;2022-08-21T02:17:36;4.70;;;4.32;;
29546;SDS011;40782;47.264;11.330;2022-08-21T02:20:05;4.75;;;4.38;;
29546;SDS011;40782;47.264;11.330;2022-08-21T02:22:33;5.93;;;4.55;;
29546;SDS011;40782;47.264;11.330;2022-08-21T02:25:00;4.57;;;4.22;;
29546;SDS011;40782;47.264;11.330;2022-08-21T02:27:28;4.82;;;4.43;;
29546;SDS011;40782;47.264;11.330;2022-08-21T02:29:55;5.47;;;4.40;;
29546;SDS011;40782;47.264;11.330;2022-08-21T02:32:25;5.15;;;4.50;;
29546;SDS011;40782;47.264;11.330;2022-08-21T02:34:52;4.55;;;4.15;;
29546;SDS011;40782;47.264;11.330;2022-08-21T02:37:19;5.00;;;4.50;;
29546;SDS011;40782;47.264;11.330;2022-08-21T02:39:48;5.35;;;4.45;;
29546;SDS011;40782;47.264;11.330;2022-08-21T02:42:15;4.95;;;4.45;;
29546;SDS011;40782;47.264;11.330;2022-08-21T02:44:42;9.10;;;4.50;;
29546;SDS011;40782;47.264;11.330;2022-08-21T02:47:10;4.40;;;4.03;;
29546;SDS011;40782;47.264;11.330;2022-08-21T02:49:38;4.65;;;4.15;;
29546;SDS011;40782;47.264;11.330;2022-08-21T02:52:06;6.53;;;4.38;;
29546;SDS011;40782;47.264;11.330;2022-08-21T02:54:33;4.45;;;4.07;;
29546;SDS011;40782;47.264;11.330;2022-08-21T02:57:00;4.00;;;3.60;;
29546;SDS011;40782;47.264;11.330;2022-08-21T02:59:27;4.70;;;4.30;;
29546;SDS011;40782;47.264;11.330;2022-08-21T03:01:54;4.25;;;3.83;;
29546;SDS011;40782;47.264;11.330;2022-08-21T03:04:21;5.15;;;3.97;;
29546;SDS011;40782;47.264;11.330;2022-08-21T03:06:50;3.78;;;3.47;;
29546;SDS011;40782;47.264;11.330;2022-08-21T03:09:17;4.13;;;3.83;;
29546;SDS011;40782;47.264;11.330;2022-08-21T03:11:44;3.80;;;3.50;;
29546;SDS011;40782;47.264;11.330;2022-08-21T03:14:11;4.68;;;4.18;;
29546;SDS011;40782;47.264;11.330;2022-08-21T03:16:38;4.38;;;4.07;;
29546;SDS011;40782;47.264;11.330;2022-08-21T03:19:06;4.45;;;4.15;;
29546;SDS011;40782;47.264;11.330;2022-08-21T03:21:33;4.07;;;3.78;;
29546;SDS011;40782;47.264;11.330;2022-08-21T03:24:02;3.50;;;3.20;;
29546;SDS011;40782;47.264;11.330;2022-08-21T03:26:32;3.92;;;3.63;;
29546;SDS011;40782;47.264;11.330;2022-08-21T03:29:00;3.80;;;3.50;;
29546;SDS011;40782;47.264;11.330;2022-08-21T03:31:27;3.33;;;3.10;;
29546;SDS011;40782;47.264;11.330;2022-08-21T03:33:56;4.40;;;3.63;;
29546;SDS011;40782;47.264;11.330;2022-08-21T03:36:24;5.22;;;3.90;;
29546;SDS011;40782;47.264;11.330;2022-08-21T03:38:51;5.40;;;3.78;;
29546;SDS011;40782;47.264;11.330;2022-08-21T03:41:20;5.57;;;3.30;;
29546;SDS011;40782;47.264;11.330;2022-08-21T03:43:47;3.47;;;3.17;;
29546;SDS011;40782;47.264;11.330;2022-08-21T03:46:14;4.00;;;3.42;;
29546;SDS011;40782;47.264;11.330;2022-08-21T03:48:41;4.32;;;3.85;;
29546;SDS011;40782;47.264;11.330;2022-08-21T03:51:09;4.20;;;3.50;;
29546;SDS011;40782;47.264;11.330;2022-08-21T03:53:36;4.13;;;3.72;;
29546;SDS011;40782;47.264;11.330;2022-08-21T03:56:04;3.58;;;3.28;;
29546;SDS011;40782;47.264;11.330;2022-08-21T03:58:33;4.20;;;3.75;;
29546;SDS011;40782;47.264;11.330;2022-08-21T04:01:00;4.00;;;3.70;;
29546;SDS011;40782;47.264;11.330;2022-08-21T04:03:29;6.68;;;3.63;;
29546;SDS011;40782;47.264;11.330;2022-08-21T04:05:57;3.92;;;3.47;;
29546;SDS011;40782;47.264;11.330;2022-08-21T04:08:24;4.00;;;3.70;;
29546;SDS011;40782;47.264;11.330;2022-08-21T04:10:52;4.18;;;3.65;;
29546;SDS011;40782;47.264;11.330;2022-08-21T04:13:21;4.85;;;3.70;;
29546;SDS011;40782;47.264;11.330;2022-08-21T04:15:50;3.60;;;3.30;;
29546;SDS011;40782;47.264;11.330;2022-08-21T04:18:17;3.65;;;3.35;;
29546;SDS011;40782;47.264;11.330;2022-08-21T04:20:45;4.93;;;3.67;;
29546;SDS011;40782;47.264;11.330;2022-08-21T04:23:14;5.45;;;3.70;;
29546;SDS011;40782;47.264;11.330;2022-08-21T04:25:41;4.75;;;3.85;;
29546;SDS011;40782;47.264;11.330;2022-08-21T04:28:09;5.57;;;3.95;;
29546;SDS011;40782;47.264;11.330;2022-08-21T04:30:36;3.58;;;3.28;;
29546;SDS011;40782;47.264;11.330;2022-08-21T04:33:05;4.28;;;3.83;;
29546;SDS011;40782;47.264;11.330;2022-08-21T04:35:32;3.25;;;3.05;;
29546;SDS011;40782;47.264;11.330;2022-08-21T04:38:00;4.30;;;2.90;;
29546;SDS011;40782;47.264;11.330;2022-08-21T04:40:27;3.30;;;3.00;;
29546;SDS011;40782;47.264;11.330;2022-08-21T04:42:55;3.13;;;2.67;;
29546;SDS011;40782;47.264;11.330;2022-08-21T04:45:26;3.35;;;3.05;;
29546;SDS011;40782;47.264;11.330;2022-08-21T04:47:55;3.72;;;2.75;;
29546;SDS011;40782;47.264;11.330;2022-08-21T04:50:26;3.28;;;2.67;;
29546;SDS011;40782;47.264;11.330;2022-08-21T04:52:57;2.88;;;2.67;;
29546;SDS011;40782;47.264;11.330;2022-08-21T04:55:24;2.90;;;2.70;;
29546;SDS011;40782;47.264;11.330;2022-08-21T04:57:53;3.28;;;2.50;;
29546;SDS011;40782;47.264;11.330;2022-08-21T05:00:21;4.10;;;2.58;;
29546;SDS011;40782;47.264;11.330;2022-08-21T05:02:50;3.20;;;2.92;;
29546;SDS011;40782;47.264;11.330;2022-08-21T05:05:21;5.28;;;2.60;;
29546;SDS011;40782;47.264;11.330;2022-08-21T05:07:50;4.15;;;2.85;;
29546;SDS011;40782;47.264;11.330;2022-08-21T05:10:18;2.95;;;2.75;;
29546;SDS011;40782;47.264;11.330;2022-08-21T05:12:45;2.97;;;2.40;;
29546;SDS011;40782;47.264;11.330;2022-08-21T05:15:12;2.70;;;2.50;;
29546;SDS011;40782;47.264;11.330;2022-08-21T05:17:40;3.10;;;2.90;;
29546;SDS011;40782;47.264;11.330;2022-08-21T05:20:08;2.95;;;2.70;;
29546;SDS011;40782;47.264;11.330;2022-08-21T05:22:35;3.22;;;3.03;;
29546;SDS011;40782;47.264;11.330;2022-08-21T05:25:04;3.03;;;2.65;;
29546;SDS011;40782;47.264;11.330;2022-08-21T05:27:33;2.92;;;2.70;;
29546;SDS011;40782;47.264;11.330;2022-08-21T05:30:00;2.65;;;2.45;;
29546;SDS011;40782;47.264;11.330;2022-08-21T05:32:27;4.15;;;2.25;;
29546;SDS011;40782;47.264;11.330;2022-08-21T05:34:54;3.25;;;2.63;;
29546;SDS011;40782;47.264;11.330;2022-08-21T05:37:21;2.50;;;2.30;;
29546;SDS011;40782;47.264;11.330;2022-08-21T05:39:48;4.18;;;2.30;;
29546;SDS011;40782;47.264;11.330;2022-08-21T05:42:17;3.70;;;2.03;;
29546;SDS011;40782;47.264;11.330;2022-08-21T05:44:44;3.90;;;2.58;;
29546;SDS011;40782;47.264;11.330;2022-08-21T05:47:11;4.15;;;2.22;;
29546;SDS011;40782;47.264;11.330;2022-08-21T05:49:39;2.97;;;2.50;;
29546;SDS011;40782;47.264;11.330;2022-08-21T05:52:06;2.85;;;2.58;;
29546;SDS011;40782;47.264;11.330;2022-08-21T05:54:33;2.30;;;2.10;;
29546;SDS011;40782;47.264;11.330;2022-08-21T05:57:03;4.47;;;2.10;;
29546;SDS011;40782;47.264;11.330;2022-08-21T05:59:31;3.55;;;2.47;;
29546;SDS011;40782;47.264;11.330;2022-08-21T06:01:58;2.83;;;2.53;;
29546;SDS011;40782;47.264;11.330;2022-08-21T06:04:27;2.95;;;2.33;;
29546;SDS011;40782;47.264;11.330;2022-08-21T06:06:54;3.30;;;2.30;;
29546;SDS011;40782;47.264;11.330;2022-08-21T06:09:21;5.07;;;2.83;;
29546;SDS011;40782;47.264;11.330;2022-08-21T06:11:49;6.63;;;2.97;;
29546;SDS011;40782;47.264;11.330;2022-08-21T06:14:16;3.38;;;3.15;;
29546;SDS011;40782;47.264;11.330;2022-08-21T06:16:44;3.20;;;3.00;;
29546;SDS011;40782;47.264;11.330;2022-08-21T06:19:12;2.95;;;2.75;;
29546;SDS011;40782;47.264;11.330;2022-08-21T06:21:39;5.28;;;3.22;;
29546;SDS011;40782;47.264;11.330;2022-08-21T06:24:06;3.83;;;3.53;;
29546;SDS011;40782;47.264;11.330;2022-08-21T06:26:33;3.67;;;3.30;;
29546;SDS011;40782;47.264;11.330;2022-08-21T06:29:02;3.72;;;3.38;;
29546;SDS011;40782;47.264;11.330;2022-08-21T06:31:29;3.20;;;2.90;;
29546;SDS011;40782;47.264;11.330;2022-08-21T06:33:58;3.53;;;3.28;;
29546;SDS011;40782;47.264;11.330;2022-08-21T06:36:25;3.22;;;3.03;;
29546;SDS011;40782;47.264;11.330;2022-08-21T06:38:52;3.30;;;3.00;;
29546;SDS011;40782;47.264;11.330;2022-08-21T06:41:19;5.53;;;3.20;;
29546;SDS011;40782;47.264;11.330;2022-08-21T06:43:46;10.27;;;9.18;;
29546;SDS011;40782;47.264;11.330;2022-08-21T06:46:14;6.88;;;6.15;;
29546;SDS011;40782;47.264;11.330;2022-08-21T06:48:41;11.07;;;7.82;;
29546;SDS011;40782;47.264;11.330;2022-08-21T06:51:09;5.38;;;4.85;;
29546;SDS011;40782;47.264;11.330;2022-08-21T06:53:36;3.80;;;3.50;;
29546;SDS011;40782;47.264;11.330;2022-08-21T06:56:04;7.15;;;3.13;;
29546;SDS011;40782;47.264;11.330;2022-08-21T06:58:31;3.17;;;2.97;;
29546;SDS011;40782;47.264;11.330;2022-08-21T07:00:58;3.53;;;3.30;;
29546;SDS011;40782;47.264;11.330;2022-08-21T07:03:26;3.65;;;2.80;;
29546;SDS011;40782;47.264;11.330;2022-08-21T07:05:55;3.55;;;3.33;;
29546;SDS011;40782;47.264;11.330;2022-08-21T07:08:24;3.10;;;2.80;;
29546;SDS011;40782;47.264;11.330;2022-08-21T07:10:53;3.00;;;2.80;;
29546;SDS011;40782;47.264;11.330;2022-08-21T07:13:22;3.00;;;2.80;;
29546;SDS011;40782;47.264;11.330;2022-08-21T07:15:49;3.65;;;2.90;;
29546;SDS011;40782;47.264;11.330;2022-08-21T07:18:17;3.35;;;2.70;;
29546;SDS011;40782;47.264;11.330;2022-08-21T07:20:44;3.80;;;2.75;;
29546;SDS011;40782;47.264;11.330;2022-08-21T07:23:13;2.30;;;2.10;;
29546;SDS011;40782;47.264;11.330;2022-08-21T07:25:50;2.88;;;2.65;;
29546;SDS011;40782;47.264;11.330;2022-08-21T07:28:17;9.80;;;8.70;;
29546;SDS011;40782;47.264;11.330;2022-08-21T07:30:44;8.55;;;6.38;;
29546;SDS011;40782;47.264;11.330;2022-08-21T07:33:12;5.13;;;4.50;;
29546;SDS011;40782;47.264;11.330;2022-08-21T07:35:39;4.80;;;4.38;;
29546;SDS011;40782;47.264;11.330;2022-08-21T07:38:07;4.65;;;3.78;;
29546;SDS011;40782;47.264;11.330;2022-08-21T07:40:34;4.22;;;3.03;;
29546;SDS011;40782;47.264;11.330;2022-08-21T07:43:03;3.17;;;2.85;;
29546;SDS011;40782;47.264;11.330;2022-08-21T07:45:30;2.95;;;2.65;;
29546;SDS011;40782;47.264;11.330;2022-08-21T07:47:57;2.65;;;2.45;;
29546;SDS011;40782;47.264;11.330;2022-08-21T07:50:25;3.70;;;2.40;;
29546;SDS011;40782;47.264;11.330;2022-08-21T07:52:52;2.53;;;2.35;;
29546;SDS011;40782;47.264;11.330;2022-08-21T07:55:19;2.95;;;1.92;;
29546;SDS011;40782;47.264;11.330;2022-08-21T07:57:48;2.50;;;2.30;;
29546;SDS011;40782;47.264;11.330;2022-08-21T08:00:18;2.40;;;2.20;;
29546;SDS011;40782;47.264;11.330;2022-08-21T08:02:47;2.00;;;1.90;;
29546;SDS011;40782;47.264;11.330;2022-08-21T08:05:18;2.63;;;1.67;;
29546;SDS011;40782;47.264;11.330;2022-08-21T08:07:46;1.88;;;1.77;;
29546;SDS011;40782;47.264;11.330;2022-08-21T08:10:14;2.30;;;2.10;;
29546;SDS011;40782;47.264;11.330;2022-08-21T08:12:43;1.83;;;1.73;;
29546;SDS011;40782;47.264;11.330;2022-08-21T08:15:12;3.28;;;2.70;;
29546;SDS011;40782;47.264;11.330;2022-08-21T08:17:43;2.42;;;2.25;;
29546;SDS011;40782;47.264;11.330;2022-08-21T08:20:10;2.40;;;1.98;;
29546;SDS011;40782;47.264;11.330;2022-08-21T08:22:39;6.28;;;4.32;;
29546;SDS011;40782;47.264;11.330;2022-08-21T08:25:08;4.10;;;3.80;;
29546;SDS011;40782;47.264;11.330;2022-08-21T08:27:37;2.50;;;2.40;;
29546;SDS011;40782;47.264;11.330;2022-08-21T08:30:05;4.05;;;2.95;;
29546;SDS011;40782;47.264;11.330;2022-08-21T08:32:34;2.03;;;1.92;;
29546;SDS011;40782;47.264;11.330;2022-08-21T08:35:03;2.33;;;1.73;;
29546;SDS011;40782;47.264;11.330;2022-08-21T08:37:31;1.80;;;1.70;;
29546;SDS011;40782;47.264;11.330;2022-08-21T08:39:59;1.75;;;1.65;;
29546;SDS011;40782;47.264;11.330;2022-08-21T08:42:27;2.80;;;1.50;;
29546;SDS011;40782;47.264;11.330;2022-08-21T08:44:58;8.63;;;7.72;;
29546;SDS011;40782;47.264;11.330;2022-08-21T08:47:29;13.57;;;11.88;;
29546;SDS011;40782;47.264;11.330;2022-08-21T08:50:00;4.10;;;3.80;;
29546;SDS011;40782;47.264;11.330;2022-08-21T08:52:32;2.60;;;2.40;;
29546;SDS011;40782;47.264;11.330;2022-08-21T08:55:02;1.73;;;1.67;;
29546;SDS011;40782;47.264;11.330;2022-08-21T08:57:32;2.53;;;2.30;;
29546;SDS011;40782;47.264;11.330;2022-08-21T09:00:03;2.17;;;1.50;;
29546;SDS011;40782;47.264;11.330;2022-08-21T09:04:59;9.05;;;8.00;;
29546;SDS011;40782;47.264;11.330;2022-08-21T09:07:32;4.70;;;4.30;;
29546;SDS011;40782;47.264;11.330;2022-08-21T09:10:11;5.38;;;4.85;;
29546;SDS011;40782;47.264;11.330;2022-08-21T09:12:45;4.60;;;4.20;;
29546;SDS011;40782;47.264;11.330;2022-08-21T09:15:21;27.63;;;21.85;;
29546;SDS011;40782;47.264;11.330;2022-08-21T09:20:57;2.30;;;2.15;;
29546;SDS011;40782;47.264;11.330;2022-08-21T09:23:39;2.20;;;2.10;;
29546;SDS011;40782;47.264;11.330;2022-08-21T09:26:13;1.85;;;1.75;;
29546;SDS011;40782;47.264;11.330;2022-08-21T09:28:42;1.90;;;1.80;;
29546;SDS011;40782;47.264;11.330;2022-08-21T09:31:13;1.25;;;1.25;;
29546;SDS011;40782;47.264;11.330;2022-08-21T09:33:47;1.63;;;1.55;;
29546;SDS011;40782;47.264;11.330;2022-08-21T09:36:22;1.52;;;1.48;;
29546;SDS011;40782;47.264;11.330;2022-08-21T09:38:53;1.77;;;1.48;;
29546;SDS011;40782;47.264;11.330;2022-08-21T09:41:25;1.63;;;1.60;;
29546;SDS011;40782;47.264;11.330;2022-08-21T09:46:21;1.40;;;1.40;;
29546;SDS011;40782;47.264;11.330;2022-08-21T09:48:51;1.77;;;1.60;;
29546;SDS011;40782;47.264;11.330;2022-08-21T09:51:20;1.83;;;1.55;;
29546;SDS011;40782;47.264;11.330;2022-08-21T09:53:49;1.70;;;1.60;;
29546;SDS011;40782;47.264;11.330;2022-08-21T09:56:25;2.45;;;1.45;;
29546;SDS011;40782;47.264;11.330;2022-08-21T09:59:13;1.60;;;1.60;;
29546;SDS011;40782;47.264;11.330;2022-08-21T10:01:45;1.52;;;1.42;;
29546;SDS011;40782;47.264;11.330;2022-08-21T10:04:15;2.88;;;1.70;;
29546;SDS011;40782;47.264;11.330;2022-08-21T10:06:47;1.90;;;1.80;;
29546;SDS011;40782;47.264;11.330;2022-08-21T10:09:16;2.28;;;1.50;;
29546;SDS011;40782;47.264;11.330;2022-08-21T10:11:49;3.47;;;1.42;;
29546;SDS011;40782;47.264;11.330;2022-08-21T10:14:31;1.48;;;1.38;;
29546;SDS011;40782;47.264;11.330;2022-08-21T10:17:07;1.48;;;1.40;;
29546;SDS011;40782;47.264;11.330;2022-08-21T10:19:42;1.60;;;1.50;;
29546;SDS011;40782;47.264;11.330;2022-08-21T10:22:20;1.58;;;1.48;;
29546;SDS011;40782;47.264;11.330;2022-08-21T10:24:58;2.55;;;1.65;;
29546;SDS011;40782;47.264;11.330;2022-08-21T10:27:37;1.50;;;1.40;;
29546;SDS011;40782;47.264;11.330;2022-08-21T10:30:12;1.92;;;1.77;;
29546;SDS011;40782;47.264;11.330;2022-08-21T10:32:51;1.73;;;1.60;;
29546;SDS011;40782;47.264;11.330;2022-08-21T10:35:27;1.50;;;1.40;;
29546;SDS011;40782;47.264;11.330;2022-08-21T10:38:01;1.77;;;1.67;;
29546;SDS011;40782;47.264;11.330;2022-08-21T10:40:52;2.85;;;1.15;;
29546;SDS011;40782;47.264;11.330;2022-08-21T10:43:29;1.60;;;1.50;;
29546;SDS011;40782;47.264;11.330;2022-08-21T10:46:02;1.33;;;1.23;;
29546;SDS011;40782;47.264;11.330;2022-08-21T10:48:41;1.20;;;1.20;;
29546;SDS011;40782;47.264;11.330;2022-08-21T10:51:16;1.45;;;1.40;;
29546;SDS011;40782;47.264;11.330;2022-08-21T10:53:50;1.20;;;1.20;;
29546;SDS011;40782;47.264;11.330;2022-08-21T10:56:26;1.30;;;1.27;;
29546;SDS011;40782;47.264;11.330;2022-08-21T10:59:02;3.13;;;1.55;;
29546;SDS011;40782;47.264;11.330;2022-08-21T11:01:39;1.33;;;1.23;;
29546;SDS011;40782;47.264;11.330;2022-08-21T11:04:15;0.80;;;0.80;;
29546;SDS011;40782;47.264;11.330;2022-08-21T11:06:46;1.10;;;1.10;;
29546;SDS011;40782;47.264;11.330;2022-08-21T11:09:18;0.63;;;0.63;;
29546;SDS011;40782;47.264;11.330;2022-08-21T11:11:49;0.90;;;0.90;;
29546;SDS011;40782;47.264;11.330;2022-08-21T11:14:24;2.17;;;0.80;;
29546;SDS011;40782;47.264;11.330;2022-08-21T11:17:01;0.70;;;0.70;;
29546;SDS011;40782;47.264;11.330;2022-08-21T11:19:35;0.70;;;0.70;;
29546;SDS011;40782;47.264;11.330;2022-08-21T11:22:11;0.90;;;0.90;;
29546;SDS011;40782;47.264;11.330;2022-08-21T11:24:44;0.82;;;0.82;;
29546;SDS011;40782;47.264;11.330;2022-08-21T11:27:20;0.85;;;0.85;;
29546;SDS011;40782;47.264;11.330;2022-08-21T11:29:52;1.20;;;0.88;;
29546;SDS011;40782;47.264;11.330;2022-08-21T11:32:29;0.60;;;0.60;;
29546;SDS011;40782;47.264;11.330;2022-08-21T11:35:18;0.82;;;0.82;;
29546;SDS011;40782;47.264;11.330;2022-08-21T11:37:57;0.75;;;0.65;;
29546;SDS011;40782;47.264;11.330;2022-08-21T11:40:42;0.77;;;0.77;;
29546;SDS011;40782;47.264;11.330;2022-08-21T11:43:18;0.80;;;0.80;;
29546;SDS011;40782;47.264;11.330;2022-08-21T11:45:55;2.00;;;0.80;;
29546;SDS011;40782;47.264;11.330;2022-08-21T11:48:30;0.63;;;0.63;;
29546;SDS011;40782;47.264;11.330;2022-08-21T11:51:07;1.02;;;0.65;;
29546;SDS011;40782;47.264;11.330;2022-08-21T11:53:39;0.75;;;0.75;;
29546;SDS011;40782;47.264;11.330;2022-08-21T11:56:17;0.70;;;0.70;;
29546;SDS011;40782;47.264;11.330;2022-08-21T11:58:50;0.70;;;0.65;;
29546;SDS011;40782;47.264;11.330;2022-08-21T12:01:22;0.57;;;0.57;;
29546;SDS011;40782;47.264;11.330;2022-08-21T12:03:55;0.50;;;0.50;;
29546;SDS011;40782;47.264;11.330;2022-08-21T12:06:29;0.52;;;0.50;;
29546;SDS011;40782;47.264;11.330;2022-08-21T12:08:59;0.50;;;0.50;;
29546;SDS011;40782;47.264;11.330;2022-08-21T12:11:28;0.57;;;0.57;;
29546;SDS011;40782;47.264;11.330;2022-08-21T12:13:56;0.57;;;0.57;;
29546;SDS011;40782;47.264;11.330;2022-08-21T12:16:30;0.77;;;0.70;;
29546;SDS011;40782;47.264;11.330;2022-08-21T12:19:03;0.93;;;0.70;;
29546;SDS011;40782;47.264;11.330;2022-08-21T12:21:32;0.70;;;0.70;;
29546;SDS011;40782;47.264;11.330;2022-08-21T12:24:05;0.80;;;0.80;;
29546;SDS011;40782;47.264;11.330;2022-08-21T12:26:48;0.80;;;0.80;;
29546;SDS011;40782;47.264;11.330;2022-08-21T12:29:21;0.90;;;0.60;;
29546;SDS011;40782;47.264;11.330;2022-08-21T12:31:52;0.80;;;0.80;;
29546;SDS011;40782;47.264;11.330;2022-08-21T12:34:23;0.60;;;0.60;;
29546;SDS011;40782;47.264;11.330;2022-08-21T12:36:57;0.70;;;0.70;;
29546;SDS011;40782;47.264;11.330;2022-08-21T12:39:27;0.65;;;0.65;;
29546;SDS011;40782;47.264;11.330;2022-08-21T12:41:59;0.50;;;0.50;;
29546;SDS011;40782;47.264;11.330;2022-08-21T12:44:33;0.85;;;0.70;;
29546;SDS011;40782;47.264;11.330;2022-08-21T12:47:12;1.00;;;0.60;;
29546;SDS011;40782;47.264;11.330;2022-08-21T12:49:43;0.93;;;0.80;;
29546;SDS011;40782;47.264;11.330;2022-08-21T12:52:20;0.77;;;0.77;;
29546;SDS011;40782;47.264;11.330;2022-08-21T12:57:18;0.50;;;0.50;;
29546;SDS011;40782;47.264;11.330;2022-08-21T12:59:51;0.50;;;0.50;;
29546;SDS011;40782;47.264;11.330;2022-08-21T13:02:22;1.88;;;0.80;;
29546;SDS011;40782;47.264;11.330;2022-08-21T13:04:52;0.88;;;0.57;;
29546;SDS011;40782;47.264;11.330;2022-08-21T13:07:24;0.70;;;0.70;;
29546;SDS011;40782;47.264;11.330;2022-08-21T13:09:55;0.70;;;0.70;;
29546;SDS011;40782;47.264;11.330;2022-08-21T13:12:24;1.00;;;0.63;;
29546;SDS011;40782;47.264;11.330;2022-08-21T13:14:55;0.60;;;0.60;;
29546;SDS011;40782;47.264;11.330;2022-08-21T13:17:25;0.68;;;0.68;;
29546;SDS011;40782;47.264;11.330;2022-08-21T13:19:57;0.77;;;0.77;;
29546;SDS011;40782;47.264;11.330;2022-08-21T13:22:26;0.45;;;0.45;;
29546;SDS011;40782;47.264;11.330;2022-08-21T13:24:54;0.50;;;0.50;;
29546;SDS011;40782;47.264;11.330;2022-08-21T13:27:23;0.60;;;0.60;;
29546;SDS011;40782;47.264;11.330;2022-08-21T13:30:07;0.60;;;0.60;;
29546;SDS011;40782;47.264;11.330;2022-08-21T13:32:39;0.50;;;0.50;;
29546;SDS011;40782;47.264;11.330;2022-08-21T13:35:09;0.85;;;0.43;;
29546;SDS011;40782;47.264;11.330;2022-08-21T13:37:38;0.43;;;0.43;;
29546;SDS011;40782;47.264;11.330;2022-08-21T13:40:07;0.70;;;0.70;;
29546;SDS011;40782;47.264;11.330;2022-08-21T13:42:40;0.70;;;0.70;;
29546;SDS011;40782;47.264;11.330;2022-08-21T13:45:14;0.55;;;0.55;;
29546;SDS011;40782;47.264;11.330;2022-08-21T13:47:46;0.60;;;0.60;;
29546;SDS011;40782;47.264;11.330;2022-08-21T13:50:15;0.60;;;0.60;;
29546;SDS011;40782;47.264;11.330;2022-08-21T13:52:53;0.70;;;0.70;;
29546;SDS011;40782;47.264;11.330;2022-08-21T13:55:23;0.75;;;0.68;;
29546;SDS011;40782;47.264;11.330;2022-08-21T13:57:58;0.65;;;0.65;;
29546;SDS011;40782;47.264;11.330;2022-08-21T14:00:28;0.80;;;0.80;;
29546;SDS011;40782;47.264;11.330;2022-08-21T14:05:31;0.90;;;0.90;;
29546;SDS011;40782;47.264;11.330;2022-08-21T14:08:02;1.58;;;1.50;;
29546;SDS011;40782;47.264;11.330;2022-08-21T14:10:31;1.08;;;0.88;;
29546;SDS011;40782;47.264;11.330;2022-08-21T14:13:04;1.23;;;1.00;;
29546;SDS011;40782;47.264;11.330;2022-08-21T14:15:33;0.90;;;0.90;;
29546;SDS011;40782;47.264;11.330;2022-08-21T14:18:09;1.13;;;0.93;;
29546;SDS011;40782;47.264;11.330;2022-08-21T14:20:41;0.82;;;0.82;;
29546;SDS011;40782;47.264;11.330;2022-08-21T14:23:08;0.80;;;0.80;;
29546;SDS011;40782;47.264;11.330;2022-08-21T14:25:38;2.05;;;0.70;;
29546;SDS011;40782;47.264;11.330;2022-08-21T14:28:10;0.82;;;0.80;;
29546;SDS011;40782;47.264;11.330;2022-08-21T14:30:45;1.33;;;0.90;;
29546;SDS011;40782;47.264;11.330;2022-08-21T14:33:25;1.05;;;0.98;;
29546;SDS011;40782;47.264;11.330;2022-08-21T14:35:53;0.85;;;0.85;;
29546;SDS011;40782;47.264;11.330;2022-08-21T14:38:22;2.22;;;0.90;;
29546;SDS011;40782;47.264;11.330;2022-08-21T14:40:51;0.95;;;0.80;;
29546;SDS011;40782;47.264;11.330;2022-08-21T14:43:20;0.73;;;0.73;;
29546;SDS011;40782;47.264;11.330;2022-08-21T14:45:47;0.73;;;0.73;;
29546;SDS011;40782;47.264;11.330;2022-08-21T14:48:16;1.08;;;0.75;;
29546;SDS011;40782;47.264;11.330;2022-08-21T14:50:43;0.80;;;0.80;;
29546;SDS011;40782;47.264;11.330;2022-08-21T14:53:11;0.82;;;0.82;;
29546;SDS011;40782;47.264;11.330;2022-08-21T14:55:38;0.95;;;0.70;;
29546;SDS011;40782;47.264;11.330;2022-08-21T14:58:24;0.75;;;0.75;;
29546;SDS011;40782;47.264;11.330;2022-08-21T15:00:52;0.85;;;0.82;;
29546;SDS011;40782;47.264;11.330;2022-08-21T15:03:24;0.68;;;0.68;;